sensor_id;sensor_type;location;lat;lon;timestamp;P1;durP1;ratioP1;P2;durP2;ratioP2
9496;SDS011;4786;51.270;4.456;2023-09-07T00:02:19;6.15;;;5.55;;
9496;SDS011;4786;51.270;4.456;2023-09-07T00:04:45;10.13;;;6.18;;
9496;SDS011;4786;51.270;4.456;2023-09-07T00:07:11;7.75;;;6.20;;
9496;SDS011;4786;51.270;4.456;2023-09-07T00:09:39;6.13;;;5.55;;
9496;SDS011;4786;51.270;4.456;2023-09-07T00:12:09;7.38;;;5.85;;
9496;SDS011;4786;51.270;4.456;2023-09-07T00:14:35;6.25;;;5.65;;
9496;SDS011;4786;51.270;4.456;2023-09-07T00:17:03;6.18;;;5.57;;
9496;SDS011;4786;51.270;4.456;2023-09-07T00:19:29;6.35;;;5.75;;
9496;SDS011;4786;51.270;4.456;2023-09-07T00:22:02;7.32;;;5.50;;
9496;SDS011;4786;51.270;4.456;2023-09-07T00:24:31;6.65;;;5.60;;
9496;SDS011;4786;51.270;4.456;2023-09-07T00:26:57;7.20;;;6.40;;
9496;SDS011;4786;51.270;4.456;2023-09-07T00:29:23;6.40;;;5.80;;
9496;SDS011;4786;51.270;4.456;2023-09-07T00:31:52;6.28;;;5.78;;
9496;SDS011;4786;51.270;4.456;2023-09-07T00:34:18;7.50;;;6.50;;
9496;SDS011;4786;51.270;4.456;2023-09-07T00:36:44;7.43;;;5.60;;
9496;SDS011;4786;51.270;4.456;2023-09-07T00:39:16;7.05;;;6.03;;
9496;SDS011;4786;51.270;4.456;2023-09-07T00:41:44;8.25;;;5.63;;
9496;SDS011;4786;51.270;4.456;2023-09-07T00:44:13;6.50;;;5.80;;
9496;SDS011;4786;51.270;4.456;2023-09-07T00:46:42;6.18;;;5.60;;
9496;SDS011;4786;51.270;4.456;2023-09-07T00:49:11;7.35;;;6.53;;
9496;SDS011;4786;51.270;4.456;2023-09-07T00:51:39;6.15;;;5.65;;
9496;SDS011;4786;51.270;4.456;2023-09-07T00:54:17;8.55;;;6.38;;
9496;SDS011;4786;51.270;4.456;2023-09-07T00:56:43;6.28;;;5.78;;
9496;SDS011;4786;51.270;4.456;2023-09-07T00:59:12;6.25;;;5.65;;
9496;SDS011;4786;51.270;4.456;2023-09-07T01:01:42;6.72;;;6.13;;
9496;SDS011;4786;51.270;4.456;2023-09-07T01:04:18;7.10;;;6.15;;
9496;SDS011;4786;51.270;4.456;2023-09-07T01:06:51;7.15;;;6.53;;
9496;SDS011;4786;51.270;4.456;2023-09-07T01:09:23;7.72;;;6.18;;
9496;SDS011;4786;51.270;4.456;2023-09-07T01:11:51;8.30;;;6.18;;
9496;SDS011;4786;51.270;4.456;2023-09-07T01:14:18;8.07;;;6.50;;
9496;SDS011;4786;51.270;4.456;2023-09-07T01:16:44;7.78;;;6.22;;
9496;SDS011;4786;51.270;4.456;2023-09-07T01:19:10;8.03;;;6.60;;
9496;SDS011;4786;51.270;4.456;2023-09-07T01:21:39;7.00;;;6.32;;
9496;SDS011;4786;51.270;4.456;2023-09-07T01:24:10;7.70;;;6.20;;
9496;SDS011;4786;51.270;4.456;2023-09-07T01:26:37;6.35;;;5.72;;
9496;SDS011;4786;51.270;4.456;2023-09-07T01:29:07;6.97;;;6.30;;
9496;SDS011;4786;51.270;4.456;2023-09-07T01:31:36;6.70;;;6.18;;
9496;SDS011;4786;51.270;4.456;2023-09-07T01:34:03;5.97;;;5.47;;
9496;SDS011;4786;51.270;4.456;2023-09-07T01:36:34;6.35;;;5.28;;
9496;SDS011;4786;51.270;4.456;2023-09-07T01:39:04;5.97;;;5.47;;
9496;SDS011;4786;51.270;4.456;2023-09-07T01:41:33;6.60;;;6.00;;
9496;SDS011;4786;51.270;4.456;2023-09-07T01:44:08;7.40;;;5.80;;
9496;SDS011;4786;51.270;4.456;2023-09-07T01:46:34;6.65;;;5.93;;
9496;SDS011;4786;51.270;4.456;2023-09-07T01:49:03;6.72;;;6.13;;
9496;SDS011;4786;51.270;4.456;2023-09-07T01:51:29;6.85;;;6.20;;
9496;SDS011;4786;51.270;4.456;2023-09-07T01:53:55;7.97;;;5.78;;
9496;SDS011;4786;51.270;4.456;2023-09-07T01:56:22;8.30;;;5.47;;
9496;SDS011;4786;51.270;4.456;2023-09-07T01:58:48;7.45;;;5.65;;
9496;SDS011;4786;51.270;4.456;2023-09-07T02:01:23;7.90;;;5.90;;
9496;SDS011;4786;51.270;4.456;2023-09-07T02:03:49;6.18;;;5.57;;
9496;SDS011;4786;51.270;4.456;2023-09-07T02:06:20;6.40;;;5.90;;
9496;SDS011;4786;51.270;4.456;2023-09-07T02:08:46;6.00;;;5.50;;
9496;SDS011;4786;51.270;4.456;2023-09-07T02:11:15;6.40;;;5.63;;
9496;SDS011;4786;51.270;4.456;2023-09-07T02:13:41;7.47;;;5.13;;
9496;SDS011;4786;51.270;4.456;2023-09-07T02:16:16;6.87;;;5.27;;
9496;SDS011;4786;51.270;4.456;2023-09-07T02:18:43;6.68;;;6.13;;
9496;SDS011;4786;51.270;4.456;2023-09-07T02:21:13;7.30;;;6.13;;
9496;SDS011;4786;51.270;4.456;2023-09-07T02:23:39;6.37;;;5.80;;
9496;SDS011;4786;51.270;4.456;2023-09-07T02:26:05;7.17;;;6.57;;
9496;SDS011;4786;51.270;4.456;2023-09-07T02:28:31;8.30;;;6.23;;
9496;SDS011;4786;51.270;4.456;2023-09-07T02:31:04;7.67;;;6.20;;
9496;SDS011;4786;51.270;4.456;2023-09-07T02:33:31;7.07;;;6.37;;
9496;SDS011;4786;51.270;4.456;2023-09-07T02:35:57;7.57;;;6.77;;
9496;SDS011;4786;51.270;4.456;2023-09-07T02:38:23;8.57;;;6.30;;
9496;SDS011;4786;51.270;4.456;2023-09-07T02:40:49;6.90;;;6.30;;
9496;SDS011;4786;51.270;4.456;2023-09-07T02:43:17;6.80;;;6.20;;
9496;SDS011;4786;51.270;4.456;2023-09-07T02:45:43;7.17;;;5.93;;
9496;SDS011;4786;51.270;4.456;2023-09-07T02:48:09;7.35;;;6.45;;
9496;SDS011;4786;51.270;4.456;2023-09-07T02:50:38;9.63;;;6.20;;
9496;SDS011;4786;51.270;4.456;2023-09-07T02:53:07;6.87;;;6.27;;
9496;SDS011;4786;51.270;4.456;2023-09-07T02:55:34;6.90;;;6.30;;
9496;SDS011;4786;51.270;4.456;2023-09-07T02:58:02;7.43;;;6.77;;
9496;SDS011;4786;51.270;4.456;2023-09-07T03:00:28;7.20;;;6.50;;
9496;SDS011;4786;51.270;4.456;2023-09-07T03:02:54;9.13;;;6.40;;
9496;SDS011;4786;51.270;4.456;2023-09-07T03:05:26;7.33;;;6.73;;
9496;SDS011;4786;51.270;4.456;2023-09-07T03:07:53;7.63;;;6.83;;
9496;SDS011;4786;51.270;4.456;2023-09-07T03:10:22;7.20;;;6.60;;
9496;SDS011;4786;51.270;4.456;2023-09-07T03:12:52;8.17;;;7.10;;
9496;SDS011;4786;51.270;4.456;2023-09-07T03:15:19;7.60;;;6.90;;
9496;SDS011;4786;51.270;4.456;2023-09-07T03:17:45;7.40;;;6.67;;
9496;SDS011;4786;51.270;4.456;2023-09-07T03:20:11;8.90;;;6.97;;
9496;SDS011;4786;51.270;4.456;2023-09-07T03:22:39;8.13;;;7.10;;
9496;SDS011;4786;51.270;4.456;2023-09-07T03:25:07;8.60;;;6.83;;
9496;SDS011;4786;51.270;4.456;2023-09-07T03:27:34;7.93;;;6.57;;
9496;SDS011;4786;51.270;4.456;2023-09-07T03:30:06;6.87;;;6.27;;
9496;SDS011;4786;51.270;4.456;2023-09-07T03:32:34;7.40;;;6.70;;
9496;SDS011;4786;51.270;4.456;2023-09-07T03:35:00;7.93;;;7.23;;
9496;SDS011;4786;51.270;4.456;2023-09-07T03:37:28;7.80;;;7.00;;
9496;SDS011;4786;51.270;4.456;2023-09-07T03:39:54;7.60;;;6.77;;
9496;SDS011;4786;51.270;4.456;2023-09-07T03:42:24;7.50;;;6.90;;
9496;SDS011;4786;51.270;4.456;2023-09-07T03:44:52;7.77;;;7.07;;
9496;SDS011;4786;51.270;4.456;2023-09-07T03:47:18;7.70;;;7.00;;
9496;SDS011;4786;51.270;4.456;2023-09-07T03:49:43;7.63;;;6.83;;
9496;SDS011;4786;51.270;4.456;2023-09-07T03:52:14;7.60;;;6.90;;
9496;SDS011;4786;51.270;4.456;2023-09-07T03:54:40;9.27;;;7.17;;
9496;SDS011;4786;51.270;4.456;2023-09-07T03:57:06;7.93;;;7.07;;
9496;SDS011;4786;51.270;4.456;2023-09-07T03:59:35;7.73;;;7.03;;
9496;SDS011;4786;51.270;4.456;2023-09-07T04:02:03;7.87;;;7.17;;
9496;SDS011;4786;51.270;4.456;2023-09-07T04:04:29;8.03;;;7.20;;
9496;SDS011;4786;51.270;4.456;2023-09-07T04:06:54;8.07;;;7.37;;
9496;SDS011;4786;51.270;4.456;2023-09-07T04:09:21;8.60;;;7.80;;
9496;SDS011;4786;51.270;4.456;2023-09-07T04:11:46;8.00;;;7.20;;
9496;SDS011;4786;51.270;4.456;2023-09-07T04:14:15;9.10;;;7.30;;
9496;SDS011;4786;51.270;4.456;2023-09-07T04:16:41;7.57;;;6.87;;
9496;SDS011;4786;51.270;4.456;2023-09-07T04:19:07;7.60;;;6.80;;
9496;SDS011;4786;51.270;4.456;2023-09-07T04:21:36;7.50;;;6.80;;
9496;SDS011;4786;51.270;4.456;2023-09-07T04:24:02;7.80;;;7.10;;
9496;SDS011;4786;51.270;4.456;2023-09-07T04:26:31;7.57;;;6.87;;
9496;SDS011;4786;51.270;4.456;2023-09-07T04:29:07;7.80;;;7.10;;
9496;SDS011;4786;51.270;4.456;2023-09-07T04:31:37;10.33;;;7.80;;
9496;SDS011;4786;51.270;4.456;2023-09-07T04:34:02;8.37;;;7.53;;
9496;SDS011;4786;51.270;4.456;2023-09-07T04:36:30;8.43;;;7.57;;
9496;SDS011;4786;51.270;4.456;2023-09-07T04:38:56;7.73;;;7.03;;
9496;SDS011;4786;51.270;4.456;2023-09-07T04:41:25;10.17;;;8.00;;
9496;SDS011;4786;51.270;4.456;2023-09-07T04:43:51;8.10;;;7.40;;
9496;SDS011;4786;51.270;4.456;2023-09-07T04:46:17;10.07;;;8.00;;
9496;SDS011;4786;51.270;4.456;2023-09-07T04:48:47;8.40;;;7.17;;
9496;SDS011;4786;51.270;4.456;2023-09-07T04:51:12;8.83;;;8.00;;
9496;SDS011;4786;51.270;4.456;2023-09-07T04:53:45;8.77;;;7.73;;
9496;SDS011;4786;51.270;4.456;2023-09-07T04:56:15;8.93;;;8.03;;
9496;SDS011;4786;51.270;4.456;2023-09-07T04:58:47;8.37;;;7.23;;
9496;SDS011;4786;51.270;4.456;2023-09-07T05:01:16;7.93;;;6.90;;
9496;SDS011;4786;51.270;4.456;2023-09-07T05:03:47;7.17;;;6.47;;
9496;SDS011;4786;51.270;4.456;2023-09-07T05:06:13;7.40;;;6.50;;
9496;SDS011;4786;51.270;4.456;2023-09-07T05:08:40;6.37;;;5.80;;
9496;SDS011;4786;51.270;4.456;2023-09-07T05:11:05;6.47;;;5.87;;
9496;SDS011;4786;51.270;4.456;2023-09-07T05:13:31;6.80;;;6.20;;
9496;SDS011;4786;51.270;4.456;2023-09-07T05:16:00;7.03;;;6.43;;
9496;SDS011;4786;51.270;4.456;2023-09-07T05:18:26;7.73;;;6.53;;
9496;SDS011;4786;51.270;4.456;2023-09-07T05:20:52;7.47;;;6.70;;
9496;SDS011;4786;51.270;4.456;2023-09-07T05:23:22;6.93;;;6.27;;
9496;SDS011;4786;51.270;4.456;2023-09-07T05:25:52;8.10;;;6.70;;
9496;SDS011;4786;51.270;4.456;2023-09-07T05:28:20;8.00;;;7.20;;
9496;SDS011;4786;51.270;4.456;2023-09-07T05:30:47;8.47;;;7.57;;
9496;SDS011;4786;51.270;4.456;2023-09-07T05:33:16;8.07;;;7.37;;
9496;SDS011;4786;51.270;4.456;2023-09-07T05:35:45;8.53;;;7.73;;
9496;SDS011;4786;51.270;4.456;2023-09-07T05:38:14;8.63;;;7.73;;
9496;SDS011;4786;51.270;4.456;2023-09-07T05:40:40;8.60;;;7.90;;
9496;SDS011;4786;51.270;4.456;2023-09-07T05:43:11;9.50;;;8.60;;
9496;SDS011;4786;51.270;4.456;2023-09-07T05:45:40;9.60;;;8.53;;
9496;SDS011;4786;51.270;4.456;2023-09-07T05:48:12;9.77;;;8.67;;
9496;SDS011;4786;51.270;4.456;2023-09-07T05:50:41;10.20;;;8.10;;
9496;SDS011;4786;51.270;4.456;2023-09-07T05:53:07;9.80;;;8.03;;
9496;SDS011;4786;51.270;4.456;2023-09-07T05:55:35;9.20;;;8.20;;
9496;SDS011;4786;51.270;4.456;2023-09-07T05:58:04;9.03;;;8.13;;
9496;SDS011;4786;51.270;4.456;2023-09-07T06:00:30;12.07;;;8.07;;
9496;SDS011;4786;51.270;4.456;2023-09-07T06:02:59;10.20;;;7.87;;
9496;SDS011;4786;51.270;4.456;2023-09-07T06:05:28;8.13;;;7.33;;
9496;SDS011;4786;51.270;4.456;2023-09-07T06:08:06;10.83;;;8.13;;
9496;SDS011;4786;51.270;4.456;2023-09-07T06:10:35;10.63;;;8.07;;
9496;SDS011;4786;51.270;4.456;2023-09-07T06:13:04;11.33;;;9.10;;
9496;SDS011;4786;51.270;4.456;2023-09-07T06:15:33;9.00;;;8.10;;
9496;SDS011;4786;51.270;4.456;2023-09-07T06:17:59;11.53;;;9.43;;
9496;SDS011;4786;51.270;4.456;2023-09-07T06:20:28;8.87;;;8.17;;
9496;SDS011;4786;51.270;4.456;2023-09-07T06:23:01;8.83;;;7.93;;
9496;SDS011;4786;51.270;4.456;2023-09-07T06:25:33;10.60;;;9.50;;
9496;SDS011;4786;51.270;4.456;2023-09-07T06:28:02;9.37;;;8.47;;
9496;SDS011;4786;51.270;4.456;2023-09-07T06:30:28;10.03;;;9.13;;
9496;SDS011;4786;51.270;4.456;2023-09-07T06:32:56;11.05;;;9.43;;
9496;SDS011;4786;51.270;4.456;2023-09-07T06:35:23;11.87;;;9.73;;
9496;SDS011;4786;51.270;4.456;2023-09-07T06:37:49;9.77;;;8.17;;
9496;SDS011;4786;51.270;4.456;2023-09-07T06:40:21;9.83;;;8.93;;
9496;SDS011;4786;51.270;4.456;2023-09-07T06:42:47;9.65;;;8.65;;
9496;SDS011;4786;51.270;4.456;2023-09-07T06:45:13;9.48;;;8.68;;
9496;SDS011;4786;51.270;4.456;2023-09-07T06:47:39;9.30;;;8.40;;
9496;SDS011;4786;51.270;4.456;2023-09-07T06:50:05;8.32;;;7.53;;
9496;SDS011;4786;51.270;4.456;2023-09-07T06:52:31;10.27;;;9.00;;
9496;SDS011;4786;51.270;4.456;2023-09-07T06:54:57;11.25;;;8.43;;
9496;SDS011;4786;51.270;4.456;2023-09-07T06:57:23;10.00;;;8.30;;
9496;SDS011;4786;51.270;4.456;2023-09-07T06:59:51;8.35;;;7.53;;
9496;SDS011;4786;51.270;4.456;2023-09-07T07:02:25;8.85;;;7.95;;
9496;SDS011;4786;51.270;4.456;2023-09-07T07:04:51;8.25;;;7.30;;
9496;SDS011;4786;51.270;4.456;2023-09-07T07:07:20;10.95;;;7.90;;
9496;SDS011;4786;51.270;4.456;2023-09-07T07:09:46;9.70;;;7.80;;
9496;SDS011;4786;51.270;4.456;2023-09-07T07:12:12;13.50;;;8.95;;
9496;SDS011;4786;51.270;4.456;2023-09-07T07:14:41;8.82;;;7.13;;
9496;SDS011;4786;51.270;4.456;2023-09-07T07:17:07;13.35;;;8.85;;
9496;SDS011;4786;51.270;4.456;2023-09-07T07:19:35;12.20;;;6.85;;
9496;SDS011;4786;51.270;4.456;2023-09-07T07:22:01;9.70;;;7.47;;
9496;SDS011;4786;51.270;4.456;2023-09-07T07:24:30;11.52;;;7.13;;
9496;SDS011;4786;51.270;4.456;2023-09-07T07:26:55;8.45;;;7.03;;
9496;SDS011;4786;51.270;4.456;2023-09-07T07:29:21;7.22;;;6.53;;
9496;SDS011;4786;51.270;4.456;2023-09-07T07:31:47;7.95;;;7.25;;
9496;SDS011;4786;51.270;4.456;2023-09-07T07:34:18;7.63;;;6.63;;
9496;SDS011;4786;51.270;4.456;2023-09-07T07:36:44;7.40;;;6.70;;
9496;SDS011;4786;51.270;4.456;2023-09-07T07:39:10;7.43;;;6.63;;
9496;SDS011;4786;51.270;4.456;2023-09-07T07:41:39;7.72;;;6.53;;
9496;SDS011;4786;51.270;4.456;2023-09-07T07:44:10;7.57;;;6.65;;
9496;SDS011;4786;51.270;4.456;2023-09-07T07:46:36;7.50;;;6.75;;
9496;SDS011;4786;51.270;4.456;2023-09-07T07:49:07;6.55;;;5.95;;
9496;SDS011;4786;51.270;4.456;2023-09-07T07:51:34;6.95;;;6.25;;
9496;SDS011;4786;51.270;4.456;2023-09-07T07:53:59;7.28;;;6.43;;
9496;SDS011;4786;51.270;4.456;2023-09-07T07:56:25;6.53;;;5.93;;
9496;SDS011;4786;51.270;4.456;2023-09-07T07:58:58;8.98;;;6.65;;
9496;SDS011;4786;51.270;4.456;2023-09-07T08:01:24;6.40;;;5.80;;
9496;SDS011;4786;51.270;4.456;2023-09-07T08:03:52;6.40;;;5.55;;
9496;SDS011;4786;51.270;4.456;2023-09-07T08:06:18;8.85;;;5.50;;
9496;SDS011;4786;51.270;4.456;2023-09-07T08:08:44;7.80;;;5.70;;
9496;SDS011;4786;51.270;4.456;2023-09-07T08:11:10;6.18;;;5.57;;
9496;SDS011;4786;51.270;4.456;2023-09-07T08:13:39;6.15;;;5.55;;
9496;SDS011;4786;51.270;4.456;2023-09-07T08:16:06;6.35;;;5.70;;
9496;SDS011;4786;51.270;4.456;2023-09-07T08:18:33;5.90;;;5.40;;
9496;SDS011;4786;51.270;4.456;2023-09-07T08:21:02;7.20;;;5.43;;
9496;SDS011;4786;51.270;4.456;2023-09-07T08:23:30;8.10;;;5.43;;
9496;SDS011;4786;51.270;4.456;2023-09-07T08:25:57;6.65;;;5.55;;
9496;SDS011;4786;51.270;4.456;2023-09-07T08:28:24;10.48;;;6.20;;
9496;SDS011;4786;51.270;4.456;2023-09-07T08:30:50;5.80;;;5.22;;
9496;SDS011;4786;51.270;4.456;2023-09-07T08:33:19;6.32;;;5.05;;
9496;SDS011;4786;51.270;4.456;2023-09-07T08:35:51;8.95;;;5.07;;
9496;SDS011;4786;51.270;4.456;2023-09-07T08:38:18;5.75;;;5.20;;
9496;SDS011;4786;51.270;4.456;2023-09-07T08:40:49;6.28;;;5.10;;
9496;SDS011;4786;51.270;4.456;2023-09-07T08:43:16;5.68;;;4.53;;
9496;SDS011;4786;51.270;4.456;2023-09-07T08:45:49;6.63;;;5.25;;
9496;SDS011;4786;51.270;4.456;2023-09-07T08:48:24;5.88;;;4.82;;
9496;SDS011;4786;51.270;4.456;2023-09-07T08:50:52;6.00;;;5.10;;
9496;SDS011;4786;51.270;4.456;2023-09-07T08:53:18;7.15;;;4.72;;
9496;SDS011;4786;51.270;4.456;2023-09-07T08:56:06;5.43;;;4.45;;
9496;SDS011;4786;51.270;4.456;2023-09-07T08:58:38;5.05;;;4.53;;
9496;SDS011;4786;51.270;4.456;2023-09-07T09:01:07;4.97;;;4.57;;
9496;SDS011;4786;51.270;4.456;2023-09-07T09:03:36;6.35;;;4.68;;
9496;SDS011;4786;51.270;4.456;2023-09-07T09:06:03;7.18;;;4.82;;
9496;SDS011;4786;51.270;4.456;2023-09-07T09:08:51;5.65;;;4.50;;
9496;SDS011;4786;51.270;4.456;2023-09-07T09:11:20;4.70;;;4.30;;
9496;SDS011;4786;51.270;4.456;2023-09-07T09:13:52;4.85;;;4.43;;
9496;SDS011;4786;51.270;4.456;2023-09-07T09:16:23;7.35;;;4.75;;
9496;SDS011;4786;51.270;4.456;2023-09-07T09:18:52;4.88;;;4.35;;
9496;SDS011;4786;51.270;4.456;2023-09-07T09:21:27;7.05;;;4.45;;
9496;SDS011;4786;51.270;4.456;2023-09-07T09:23:55;5.50;;;4.32;;
9496;SDS011;4786;51.270;4.456;2023-09-07T09:26:22;6.13;;;4.50;;
9496;SDS011;4786;51.270;4.456;2023-09-07T09:28:51;5.55;;;4.25;;
9496;SDS011;4786;51.270;4.456;2023-09-07T09:31:19;5.78;;;4.28;;
9496;SDS011;4786;51.270;4.456;2023-09-07T09:33:49;5.55;;;3.65;;
9496;SDS011;4786;51.270;4.456;2023-09-07T09:36:18;4.55;;;3.67;;
9496;SDS011;4786;51.270;4.456;2023-09-07T09:38:51;5.25;;;3.80;;
9496;SDS011;4786;51.270;4.456;2023-09-07T09:41:20;3.95;;;3.65;;
9496;SDS011;4786;51.270;4.456;2023-09-07T09:43:47;4.38;;;3.80;;
9496;SDS011;4786;51.270;4.456;2023-09-07T09:46:18;5.38;;;3.70;;
9496;SDS011;4786;51.270;4.456;2023-09-07T09:48:47;8.18;;;3.53;;
9496;SDS011;4786;51.270;4.456;2023-09-07T09:51:17;5.72;;;4.25;;
9496;SDS011;4786;51.270;4.456;2023-09-07T09:53:44;3.92;;;3.55;;
9496;SDS011;4786;51.270;4.456;2023-09-07T09:56:10;5.78;;;3.65;;
9496;SDS011;4786;51.270;4.456;2023-09-07T09:58:39;4.05;;;3.40;;
9496;SDS011;4786;51.270;4.456;2023-09-07T10:01:05;4.00;;;3.60;;
9496;SDS011;4786;51.270;4.456;2023-09-07T10:03:33;3.75;;;3.30;;
9496;SDS011;4786;51.270;4.456;2023-09-07T10:06:11;4.82;;;3.60;;
9496;SDS011;4786;51.270;4.456;2023-09-07T10:08:38;7.90;;;3.38;;
9496;SDS011;4786;51.270;4.456;2023-09-07T10:11:08;5.43;;;3.50;;
9496;SDS011;4786;51.270;4.456;2023-09-07T10:13:37;3.50;;;3.20;;
9496;SDS011;4786;51.270;4.456;2023-09-07T10:16:06;5.78;;;3.58;;
9496;SDS011;4786;51.270;4.456;2023-09-07T10:18:36;5.65;;;3.30;;
9496;SDS011;4786;51.270;4.456;2023-09-07T10:21:03;4.60;;;3.50;;
9496;SDS011;4786;51.270;4.456;2023-09-07T10:23:36;3.63;;;3.33;;
9496;SDS011;4786;51.270;4.456;2023-09-07T10:26:12;8.35;;;3.90;;
9496;SDS011;4786;51.270;4.456;2023-09-07T10:28:39;3.60;;;3.30;;
9496;SDS011;4786;51.270;4.456;2023-09-07T10:31:16;4.82;;;3.40;;
9496;SDS011;4786;51.270;4.456;2023-09-07T10:33:43;3.95;;;3.22;;
9496;SDS011;4786;51.270;4.456;2023-09-07T10:36:25;3.78;;;3.47;;
9496;SDS011;4786;51.270;4.456;2023-09-07T10:38:52;4.28;;;3.30;;
9496;SDS011;4786;51.270;4.456;2023-09-07T10:41:21;3.88;;;3.28;;
9496;SDS011;4786;51.270;4.456;2023-09-07T10:43:48;3.70;;;3.30;;
9496;SDS011;4786;51.270;4.456;2023-09-07T10:46:19;4.30;;;3.28;;
9496;SDS011;4786;51.270;4.456;2023-09-07T10:48:48;4.72;;;3.10;;
9496;SDS011;4786;51.270;4.456;2023-09-07T10:51:22;3.22;;;3.03;;
9496;SDS011;4786;51.270;4.456;2023-09-07T10:53:50;4.32;;;3.53;;
9496;SDS011;4786;51.270;4.456;2023-09-07T10:56:16;4.47;;;3.53;;
9496;SDS011;4786;51.270;4.456;2023-09-07T10:58:47;5.75;;;3.53;;
9496;SDS011;4786;51.270;4.456;2023-09-07T11:01:21;6.55;;;3.28;;
9496;SDS011;4786;51.270;4.456;2023-09-07T11:03:47;3.28;;;2.83;;
9496;SDS011;4786;51.270;4.456;2023-09-07T11:06:14;3.85;;;3.50;;
9496;SDS011;4786;51.270;4.456;2023-09-07T11:08:46;4.95;;;3.25;;
9496;SDS011;4786;51.270;4.456;2023-09-07T11:11:15;7.30;;;3.70;;
9496;SDS011;4786;51.270;4.456;2023-09-07T11:13:42;6.68;;;3.75;;
9496;SDS011;4786;51.270;4.456;2023-09-07T11:16:08;5.03;;;3.78;;
9496;SDS011;4786;51.270;4.456;2023-09-07T11:18:35;4.70;;;3.33;;
9496;SDS011;4786;51.270;4.456;2023-09-07T11:21:02;4.55;;;3.55;;
9496;SDS011;4786;51.270;4.456;2023-09-07T11:23:32;3.90;;;3.58;;
9496;SDS011;4786;51.270;4.456;2023-09-07T11:26:04;3.30;;;3.00;;
9496;SDS011;4786;51.270;4.456;2023-09-07T11:28:31;5.80;;;3.50;;
9496;SDS011;4786;51.270;4.456;2023-09-07T11:31:00;5.45;;;3.22;;
9496;SDS011;4786;51.270;4.456;2023-09-07T11:33:26;3.50;;;3.20;;
9496;SDS011;4786;51.270;4.456;2023-09-07T11:35:56;5.07;;;3.72;;
9496;SDS011;4786;51.270;4.456;2023-09-07T11:38:22;4.82;;;3.50;;
9496;SDS011;4786;51.270;4.456;2023-09-07T11:40:47;5.68;;;3.20;;
9496;SDS011;4786;51.270;4.456;2023-09-07T11:43:19;3.78;;;3.42;;
9496;SDS011;4786;51.270;4.456;2023-09-07T11:45:45;5.15;;;3.50;;
9496;SDS011;4786;51.270;4.456;2023-09-07T11:48:14;3.65;;;3.15;;
9496;SDS011;4786;51.270;4.456;2023-09-07T11:50:40;4.70;;;3.30;;
9496;SDS011;4786;51.270;4.456;2023-09-07T11:53:09;3.75;;;3.10;;
9496;SDS011;4786;51.270;4.456;2023-09-07T11:55:36;3.17;;;2.95;;
9496;SDS011;4786;51.270;4.456;2023-09-07T11:58:08;4.80;;;3.58;;
9496;SDS011;4786;51.270;4.456;2023-09-07T12:00:34;3.58;;;3.28;;
9496;SDS011;4786;51.270;4.456;2023-09-07T12:03:02;3.55;;;3.25;;
9496;SDS011;4786;51.270;4.456;2023-09-07T12:05:29;4.25;;;3.50;;
9496;SDS011;4786;51.270;4.456;2023-09-07T12:07:58;4.07;;;3.30;;
9496;SDS011;4786;51.270;4.456;2023-09-07T12:10:30;4.88;;;3.60;;
9496;SDS011;4786;51.270;4.456;2023-09-07T12:12:59;5.15;;;3.47;;
9496;SDS011;4786;51.270;4.456;2023-09-07T12:15:28;3.80;;;3.30;;
9496;SDS011;4786;51.270;4.456;2023-09-07T12:17:54;3.92;;;3.63;;
9496;SDS011;4786;51.270;4.456;2023-09-07T12:20:28;4.03;;;3.42;;
9496;SDS011;4786;51.270;4.456;2023-09-07T12:22:54;5.43;;;3.90;;
9496;SDS011;4786;51.270;4.456;2023-09-07T12:25:22;3.97;;;3.60;;
9496;SDS011;4786;51.270;4.456;2023-09-07T12:27:51;3.88;;;3.47;;
9496;SDS011;4786;51.270;4.456;2023-09-07T12:30:23;4.70;;;3.00;;
9496;SDS011;4786;51.270;4.456;2023-09-07T12:32:49;3.72;;;3.42;;
9496;SDS011;4786;51.270;4.456;2023-09-07T12:35:27;6.85;;;3.58;;
9496;SDS011;4786;51.270;4.456;2023-09-07T12:37:53;6.20;;;3.20;;
9496;SDS011;4786;51.270;4.456;2023-09-07T12:40:20;4.13;;;3.10;;
9496;SDS011;4786;51.270;4.456;2023-09-07T12:42:51;5.18;;;3.00;;
9496;SDS011;4786;51.270;4.456;2023-09-07T12:45:19;3.75;;;3.42;;
9496;SDS011;4786;51.270;4.456;2023-09-07T12:47:45;4.20;;;3.80;;
9496;SDS011;4786;51.270;4.456;2023-09-07T12:50:11;5.32;;;3.42;;
9496;SDS011;4786;51.270;4.456;2023-09-07T12:52:43;4.25;;;3.67;;
9496;SDS011;4786;51.270;4.456;2023-09-07T12:55:09;5.72;;;3.67;;
9496;SDS011;4786;51.270;4.456;2023-09-07T12:57:35;5.32;;;3.15;;
9496;SDS011;4786;51.270;4.456;2023-09-07T13:00:08;3.80;;;3.50;;
9496;SDS011;4786;51.270;4.456;2023-09-07T13:02:41;4.57;;;3.38;;
9496;SDS011;4786;51.270;4.456;2023-09-07T13:05:10;4.65;;;3.30;;
9496;SDS011;4786;51.270;4.456;2023-09-07T13:07:38;7.35;;;3.40;;
9496;SDS011;4786;51.270;4.456;2023-09-07T13:10:05;3.80;;;3.47;;
9496;SDS011;4786;51.270;4.456;2023-09-07T13:12:32;3.45;;;3.15;;
9496;SDS011;4786;51.270;4.456;2023-09-07T13:14:58;3.28;;;2.97;;
9496;SDS011;4786;51.270;4.456;2023-09-07T13:17:25;5.00;;;3.38;;
9496;SDS011;4786;51.270;4.456;2023-09-07T13:19:51;6.00;;;3.55;;
9496;SDS011;4786;51.270;4.456;2023-09-07T13:22:17;5.95;;;3.30;;
9496;SDS011;4786;51.270;4.456;2023-09-07T13:24:46;5.93;;;3.60;;
9496;SDS011;4786;51.270;4.456;2023-09-07T13:27:20;3.92;;;3.40;;
9496;SDS011;4786;51.270;4.456;2023-09-07T13:29:48;4.78;;;3.70;;
9496;SDS011;4786;51.270;4.456;2023-09-07T13:32:14;3.65;;;3.17;;
9496;SDS011;4786;51.270;4.456;2023-09-07T13:34:40;4.50;;;3.25;;
9496;SDS011;4786;51.270;4.456;2023-09-07T13:37:06;3.40;;;3.10;;
9496;SDS011;4786;51.270;4.456;2023-09-07T13:39:35;3.50;;;3.20;;
9496;SDS011;4786;51.270;4.456;2023-09-07T13:42:06;4.95;;;3.28;;
9496;SDS011;4786;51.270;4.456;2023-09-07T13:44:32;6.70;;;3.47;;
9496;SDS011;4786;51.270;4.456;2023-09-07T13:46:57;3.75;;;3.35;;
9496;SDS011;4786;51.270;4.456;2023-09-07T13:49:26;5.50;;;3.70;;
9496;SDS011;4786;51.270;4.456;2023-09-07T13:51:57;4.10;;;3.25;;
9496;SDS011;4786;51.270;4.456;2023-09-07T13:54:26;4.90;;;3.47;;
9496;SDS011;4786;51.270;4.456;2023-09-07T13:56:52;3.88;;;3.47;;
9496;SDS011;4786;51.270;4.456;2023-09-07T13:59:18;4.47;;;3.15;;
9496;SDS011;4786;51.270;4.456;2023-09-07T14:01:49;3.90;;;3.60;;
9496;SDS011;4786;51.270;4.456;2023-09-07T14:04:17;6.07;;;4.15;;
9496;SDS011;4786;51.270;4.456;2023-09-07T14:06:43;6.68;;;3.67;;
9496;SDS011;4786;51.270;4.456;2023-09-07T14:09:09;5.25;;;3.50;;
9496;SDS011;4786;51.270;4.456;2023-09-07T14:11:38;3.85;;;3.55;;
9496;SDS011;4786;51.270;4.456;2023-09-07T14:14:10;3.80;;;3.50;;
9496;SDS011;4786;51.270;4.456;2023-09-07T14:16:36;3.97;;;3.65;;
9496;SDS011;4786;51.270;4.456;2023-09-07T14:19:07;3.97;;;3.58;;
9496;SDS011;4786;51.270;4.456;2023-09-07T14:21:36;3.90;;;3.60;;
9496;SDS011;4786;51.270;4.456;2023-09-07T14:24:02;4.55;;;3.75;;
9496;SDS011;4786;51.270;4.456;2023-09-07T14:26:33;3.72;;;3.33;;
9496;SDS011;4786;51.270;4.456;2023-09-07T14:29:03;3.55;;;3.33;;
9496;SDS011;4786;51.270;4.456;2023-09-07T14:31:32;4.38;;;3.60;;
9496;SDS011;4786;51.270;4.456;2023-09-07T14:34:00;6.55;;;3.70;;
9496;SDS011;4786;51.270;4.456;2023-09-07T14:36:29;5.63;;;3.58;;
9496;SDS011;4786;51.270;4.456;2023-09-07T14:39:10;5.55;;;3.53;;
9496;SDS011;4786;51.270;4.456;2023-09-07T14:41:39;5.22;;;3.60;;
9496;SDS011;4786;51.270;4.456;2023-09-07T14:44:05;4.70;;;3.47;;
9496;SDS011;4786;51.270;4.456;2023-09-07T14:46:31;3.97;;;3.67;;
9496;SDS011;4786;51.270;4.456;2023-09-07T14:49:00;6.30;;;3.83;;
9496;SDS011;4786;51.270;4.456;2023-09-07T14:51:26;5.15;;;3.55;;
9496;SDS011;4786;51.270;4.456;2023-09-07T14:53:52;4.15;;;3.83;;
9496;SDS011;4786;51.270;4.456;2023-09-07T14:56:19;3.65;;;3.35;;
9496;SDS011;4786;51.270;4.456;2023-09-07T14:58:50;6.13;;;4.00;;
9496;SDS011;4786;51.270;4.456;2023-09-07T15:01:22;7.82;;;3.70;;
9496;SDS011;4786;51.270;4.456;2023-09-07T15:03:51;4.25;;;3.10;;
9496;SDS011;4786;51.270;4.456;2023-09-07T15:06:27;4.10;;;3.70;;
9496;SDS011;4786;51.270;4.456;2023-09-07T15:08:58;3.92;;;3.58;;
9496;SDS011;4786;51.270;4.456;2023-09-07T15:11:29;3.63;;;3.33;;
9496;SDS011;4786;51.270;4.456;2023-09-07T15:13:55;4.13;;;3.75;;
9496;SDS011;4786;51.270;4.456;2023-09-07T15:16:24;4.50;;;3.88;;
9496;SDS011;4786;51.270;4.456;2023-09-07T15:18:56;4.47;;;3.42;;
9496;SDS011;4786;51.270;4.456;2023-09-07T15:21:25;3.95;;;3.65;;
9496;SDS011;4786;51.270;4.456;2023-09-07T15:23:53;4.95;;;3.90;;